createdAt,value
2019-03-21T00:02:31.319Z,5.60
2019-03-21T00:05:03.689Z,5.60
2019-03-21T00:07:35.738Z,5.50
2019-03-21T00:10:42.352Z,5.50
2019-03-21T00:13:14.874Z,5.50
2019-03-21T00:15:46.968Z,5.40
2019-03-21T00:18:19.099Z,5.40
2019-03-21T00:20:51.283Z,5.40
2019-03-21T00:23:22.967Z,5.40
2019-03-21T00:25:54.554Z,5.40
2019-03-21T00:28:26.584Z,5.40
2019-03-21T00:30:58.818Z,5.40
2019-03-21T00:33:31.063Z,5.40
2019-03-21T00:36:03.059Z,5.30
2019-03-21T00:38:35.019Z,5.30
2019-03-21T00:41:06.624Z,5.30
2019-03-21T00:43:38.473Z,5.30
2019-03-21T00:46:10.850Z,5.30
2019-03-21T00:48:42.865Z,5.20
2019-03-21T00:51:14.617Z,5.20
2019-03-21T00:53:46.208Z,5.30
2019-03-21T00:56:18.569Z,5.20
2019-03-21T00:58:50.469Z,5.20
2019-03-21T01:01:22.781Z,5.30
2019-03-21T01:03:54.828Z,5.20
2019-03-21T01:06:26.589Z,5.20
2019-03-21T01:08:58.928Z,5.20
2019-03-21T01:11:30.693Z,5.20
2019-03-21T01:14:02.964Z,5.10
2019-03-21T01:16:34.339Z,5.10
2019-03-21T01:19:06.383Z,5.10
2019-03-21T01:21:38.256Z,5.00
2019-03-21T01:24:10.253Z,5.00
2019-03-21T01:26:42.043Z,5.00
2019-03-21T01:29:14.298Z,5.00
2019-03-21T01:31:46.266Z,5.00
2019-03-21T01:34:18.128Z,5.00
2019-03-21T01:36:49.750Z,5.10
2019-03-21T01:39:21.868Z,5.00
2019-03-21T01:41:54.144Z,5.00
2019-03-21T01:44:25.883Z,5.00
2019-03-21T01:46:57.159Z,5.00
2019-03-21T01:49:29.288Z,5.00
2019-03-21T01:52:00.969Z,4.90
2019-03-21T01:54:32.648Z,4.90
2019-03-21T01:57:04.779Z,4.90
2019-03-21T01:59:36.388Z,4.90
2019-03-21T02:02:08.253Z,4.90
2019-03-21T02:04:40.353Z,4.90
2019-03-21T02:07:12.518Z,4.80
2019-03-21T02:09:44.853Z,4.90
2019-03-21T02:12:17.030Z,4.80
2019-03-21T02:14:52.395Z,4.80
2019-03-21T02:17:21.874Z,4.80
2019-03-21T02:19:54.999Z,4.80
2019-03-21T02:22:26.776Z,4.80
2019-03-21T02:24:58.696Z,4.70
2019-03-21T02:27:30.870Z,4.70
2019-03-21T02:30:02.490Z,4.60
2019-03-21T02:32:34.143Z,4.60
2019-03-21T02:35:06.604Z,4.70
2019-03-21T02:37:38.679Z,4.60
2019-03-21T02:40:13.634Z,4.60
2019-03-21T02:42:45.744Z,4.60
2019-03-21T02:45:18.098Z,4.50
2019-03-21T02:47:50.506Z,4.50
2019-03-21T02:50:25.229Z,4.50
2019-03-21T02:52:57.299Z,4.50
2019-03-21T02:55:29.404Z,4.40
2019-03-21T02:58:01.668Z,4.50
2019-03-21T03:00:34.633Z,4.50
2019-03-21T03:03:06.734Z,4.50
2019-03-21T03:05:38.394Z,4.50
2019-03-21T03:08:10.759Z,4.60
2019-03-21T03:10:45.320Z,4.60
2019-03-21T03:13:17.334Z,4.60
2019-03-21T03:15:49.274Z,4.50
2019-03-21T03:18:21.385Z,4.40
2019-03-21T03:20:53.379Z,4.40
2019-03-21T03:23:25.489Z,4.40
2019-03-21T03:25:57.098Z,4.30
2019-03-21T03:28:29.577Z,4.50
2019-03-21T03:31:01.777Z,4.60
2019-03-21T03:33:33.074Z,4.50
2019-03-21T03:36:04.743Z,4.50
2019-03-21T03:38:36.742Z,4.40
2019-03-21T03:41:09.448Z,4.40
2019-03-21T03:43:41.373Z,4.40
2019-03-21T03:46:13.466Z,4.40
2019-03-21T03:48:45.493Z,4.40
2019-03-21T03:51:17.564Z,4.50
2019-03-21T03:53:49.499Z,4.50
2019-03-21T03:56:21.775Z,4.50
2019-03-21T03:58:54.423Z,4.60
2019-03-21T04:01:26.293Z,4.60
2019-03-21T04:03:58.419Z,4.50
2019-03-21T04:06:30.146Z,4.20
2019-03-21T04:09:02.103Z,3.80
2019-03-21T04:11:34.344Z,3.70
2019-03-21T04:14:06.248Z,3.50
2019-03-21T04:16:38.660Z,3.40
2019-03-21T04:19:10.210Z,3.40
2019-03-21T04:21:42.212Z,3.30
2019-03-21T04:24:13.969Z,3.20
2019-03-21T04:26:46.043Z,3.10
2019-03-21T04:29:18.160Z,3.10
2019-03-21T04:31:50.790Z,2.90
2019-03-21T04:34:22.738Z,2.90
2019-03-21T04:36:54.714Z,3.10
2019-03-21T04:39:26.792Z,2.70
2019-03-21T04:41:59.013Z,2.40
2019-03-21T04:44:30.564Z,2.10
2019-03-21T04:47:01.909Z,2.30
2019-03-21T04:49:33.864Z,2.30
2019-03-21T04:52:05.849Z,2.60
2019-03-21T04:54:37.879Z,2.80
2019-03-21T04:57:09.398Z,2.70
2019-03-21T04:59:41.149Z,2.60
2019-03-21T05:02:12.839Z,2.50
2019-03-21T05:04:44.873Z,2.60
2019-03-21T05:07:16.245Z,2.60
2019-03-21T05:09:47.653Z,2.00
2019-03-21T05:12:20.258Z,1.70
2019-03-21T05:14:52.246Z,1.60
2019-03-21T05:17:24.295Z,1.50
2019-03-21T05:19:56.234Z,1.50
2019-03-21T05:22:28.978Z,1.40
2019-03-21T05:25:01.033Z,1.60
2019-03-21T05:27:32.954Z,1.90
2019-03-21T05:30:05.414Z,2.00
2019-03-21T05:32:37.208Z,2.20
2019-03-21T05:35:09.189Z,2.00
2019-03-21T05:37:41.439Z,1.70
2019-03-21T05:40:14.604Z,1.50
2019-03-21T05:42:50.379Z,1.60
2019-03-21T05:45:22.428Z,1.70
2019-03-21T05:47:54.423Z,1.90
2019-03-21T05:50:26.053Z,1.90
2019-03-21T05:52:57.731Z,2.00
2019-03-21T05:55:29.468Z,2.00
2019-03-21T05:58:01.003Z,2.00
2019-03-21T06:00:39.369Z,2.00
2019-03-21T06:03:14.773Z,1.90
2019-03-21T06:05:48.578Z,2.00
2019-03-21T06:08:23.909Z,1.90
2019-03-21T06:10:55.684Z,2.00
2019-03-21T06:13:27.403Z,2.30
2019-03-21T06:16:06.609Z,2.70
2019-03-21T06:19:22.663Z,2.80
2019-03-21T06:22:40.725Z,2.90
2019-03-21T06:25:34.213Z,2.90
2019-03-21T06:28:05.938Z,3.20
2019-03-21T06:30:38.019Z,3.50
2019-03-21T06:33:10.143Z,3.40
2019-03-21T06:35:42.184Z,3.60
2019-03-21T06:38:14.384Z,3.70
2019-03-21T06:40:46.418Z,3.80
2019-03-21T06:43:18.565Z,4.00
2019-03-21T06:45:50.815Z,4.20
2019-03-21T06:48:22.859Z,4.40
2019-03-21T06:50:54.933Z,4.60
2019-03-21T06:53:27.097Z,4.80
2019-03-21T06:55:59.168Z,5.00
2019-03-21T06:58:31.179Z,5.10
2019-03-21T07:01:03.113Z,5.30
2019-03-21T07:03:35.312Z,5.50
2019-03-21T07:06:06.865Z,5.70
2019-03-21T07:08:38.860Z,5.90
2019-03-21T07:11:11.149Z,6.10
2019-03-21T07:13:42.809Z,6.30
2019-03-21T07:16:14.433Z,6.50
2019-03-21T07:18:46.103Z,6.70
2019-03-21T07:21:17.800Z,6.90
2019-03-21T07:27:24.024Z,7.30
2019-03-21T07:30:21.963Z,7.40
2019-03-21T07:38:47.669Z,8.00
2019-03-21T07:41:38.844Z,8.20
2019-03-21T07:44:31.924Z,8.30
2019-03-21T07:47:12.867Z,8.40
2019-03-21T07:52:55.449Z,8.70
2019-03-21T07:55:27.209Z,8.80
2019-03-21T07:58:28.734Z,8.90
2019-03-21T08:01:26.805Z,9.00
2019-03-21T08:07:38.384Z,9.10
2019-03-21T08:10:13.770Z,9.20
2019-03-21T08:12:51.635Z,9.40
2019-03-21T08:15:29.789Z,9.40
2019-03-21T08:18:24.424Z,9.50
2019-03-21T08:21:17.980Z,9.60
2019-03-21T08:24:17.459Z,9.80
2019-03-21T08:26:57.754Z,9.90
2019-03-21T08:42:52.121Z,10.40
2019-03-21T08:45:51.688Z,10.50
2019-03-21T08:49:27.134Z,10.80
2019-03-21T08:52:47.366Z,10.90
2019-03-21T08:55:44.073Z,10.80
2019-03-21T09:04:53.659Z,11.20
2019-03-21T09:07:41.354Z,11.20
2019-03-21T09:17:16.863Z,11.40
2019-03-21T09:19:52.019Z,11.50
2019-03-21T09:26:05.704Z,12.00
2019-03-21T09:29:02.039Z,11.90
2019-03-21T09:32:05.741Z,12.00
2019-03-21T09:35:04.734Z,12.10
2019-03-21T09:38:14.418Z,12.30
2019-03-21T09:41:13.834Z,12.40
2019-03-21T09:50:50.729Z,12.00
2019-03-21T09:53:33.514Z,12.30
2019-03-21T09:56:32.894Z,12.50
2019-03-21T09:59:25.620Z,12.60
2019-03-21T10:02:38.008Z,12.50
2019-03-21T10:09:00.014Z,12.40
2019-03-21T10:12:17.524Z,12.50
2019-03-21T10:15:21.874Z,12.50
2019-03-21T10:27:20.123Z,12.30
2019-03-21T10:29:51.781Z,12.20
2019-03-21T10:32:36.079Z,12.30
2019-03-21T10:35:19.786Z,12.40
2019-03-21T10:40:51.149Z,13.20
2019-03-21T10:43:31.709Z,13.50
2019-03-21T10:46:53.950Z,13.70
2019-03-21T10:49:38.223Z,13.10
2019-03-21T10:52:10.344Z,13.10
2019-03-21T10:54:45.490Z,12.70
2019-03-21T10:57:25.384Z,13.10
2019-03-21T11:00:03.461Z,13.40
2019-03-21T11:05:42.136Z,13.60
2019-03-21T11:08:28.959Z,13.10
2019-03-21T11:11:28.125Z,12.80
2019-03-21T11:13:59.733Z,13.10
2019-03-21T11:16:37.919Z,13.20
2019-03-21T11:19:33.208Z,13.30
2019-03-21T11:30:40.303Z,14.10
2019-03-21T11:33:50.158Z,13.90
2019-03-21T11:36:22.123Z,13.70
2019-03-21T11:39:15.599Z,13.50
2019-03-21T11:42:03.820Z,13.90
2019-03-21T11:44:53.156Z,14.10
2019-03-21T11:47:42.208Z,14.20
2019-03-21T11:50:31.822Z,14.40
2019-03-21T11:53:09.469Z,14.90
2019-03-21T11:55:41.525Z,15.20
2019-03-21T11:58:13.549Z,15.50
2019-03-21T12:00:45.859Z,15.70
2019-03-21T12:03:33.043Z,15.40
2019-03-21T12:06:53.308Z,15.40
2019-03-21T12:09:51.399Z,14.60
2019-03-21T12:12:23.824Z,14.40
2019-03-21T12:15:25.713Z,14.10
2019-03-21T12:18:12.744Z,14.10
2019-03-21T12:20:44.784Z,15.10
2019-03-21T12:23:34.764Z,14.50
2019-03-21T12:30:04.889Z,14.80
2019-03-21T12:33:09.634Z,15.20
2019-03-21T12:36:00.269Z,15.30
2019-03-21T12:38:45.788Z,15.40
2019-03-21T12:42:03.981Z,15.30
2019-03-21T12:45:03.630Z,15.90
2019-03-21T12:57:25.255Z,16.00
2019-03-21T13:00:21.047Z,16.60
2019-03-21T13:09:14.669Z,16.80
2019-03-21T13:12:19.514Z,17.20
2019-03-21T13:18:24.230Z,17.60
2019-03-21T13:21:40.589Z,17.80
2019-03-21T13:31:10.904Z,18.20
2019-03-21T13:34:14.754Z,18.20
2019-03-21T13:37:21.473Z,18.00
2019-03-21T13:40:36.453Z,18.50
2019-03-21T14:02:32.819Z,19.60
2019-03-21T14:05:24.869Z,19.20
2019-03-21T14:11:29.670Z,19.10
2019-03-21T14:24:10.263Z,20.20
2019-03-21T14:36:56.633Z,22.60
2019-03-21T14:43:02.734Z,22.70
2019-03-21T14:46:15.234Z,22.60
2019-03-21T14:48:56.529Z,22.60
2019-03-21T14:51:50.753Z,22.80
2019-03-21T14:58:04.629Z,19.40
2019-03-21T15:04:02.095Z,19.40
2019-03-21T15:06:51.878Z,19.30
2019-03-21T15:10:06.434Z,19.30
2019-03-21T15:15:52.284Z,21.30
2019-03-21T15:19:03.807Z,22.70
2019-03-21T15:22:04.209Z,24.30
2019-03-21T15:25:20.357Z,24.40
2019-03-21T15:31:43.743Z,24.80
2019-03-21T15:34:28.839Z,26.50
2019-03-21T15:40:17.894Z,27.30
2019-03-21T15:43:25.429Z,25.50
2019-03-21T15:46:19.099Z,26.00
2019-03-21T15:49:24.353Z,27.00
2019-03-21T15:58:04.800Z,26.70
2019-03-21T16:00:58.979Z,26.00
2019-03-21T16:06:50.154Z,25.80
2019-03-21T16:18:31.600Z,25.10
2019-03-21T16:21:42.229Z,25.60
2019-03-21T16:25:08.854Z,24.30
2019-03-21T16:28:10.655Z,24.50
2019-03-21T16:34:23.469Z,23.70
2019-03-21T16:37:48.753Z,22.80
2019-03-21T16:41:13.440Z,21.80
2019-03-21T16:47:03.414Z,21.60
2019-03-21T16:50:15.553Z,22.50
2019-03-21T16:59:10.504Z,21.70
2019-03-21T17:02:08.914Z,20.90
2019-03-21T17:08:12.970Z,19.60
2019-03-21T17:10:56.483Z,19.30
2019-03-21T17:13:47.670Z,18.50
2019-03-21T17:16:43.105Z,18.40
2019-03-21T17:22:31.449Z,17.60
2019-03-21T17:25:44.887Z,17.20
2019-03-21T17:32:22.354Z,16.40
2019-03-21T17:35:29.749Z,15.60
2019-03-21T17:38:17.494Z,15.10
2019-03-21T17:41:12.290Z,14.60
2019-03-21T17:44:11.664Z,14.40
2019-03-21T17:47:20.054Z,14.20
2019-03-21T17:49:57.693Z,13.80
2019-03-21T18:09:00.092Z,12.70
2019-03-21T18:12:07.424Z,12.50
2019-03-21T18:24:34.752Z,11.70
2019-03-21T18:27:38.524Z,11.80
2019-03-21T18:30:25.499Z,11.80
2019-03-21T18:40:17.159Z,11.60
2019-03-21T18:58:26.552Z,10.60
2019-03-21T19:11:34.429Z,10.90
2019-03-21T19:14:52.336Z,10.80
2019-03-21T19:21:18.659Z,10.60
2019-03-21T19:24:21.155Z,10.40
2019-03-21T19:40:17.139Z,10.10
2019-03-21T19:46:55.010Z,10.00
2019-03-21T19:49:42.379Z,9.90
2019-03-21T19:57:58.881Z,9.70
2019-03-21T20:04:13.360Z,8.50
2019-03-21T20:07:36.249Z,7.70
2019-03-21T20:13:55.364Z,7.70
2019-03-21T20:16:57.289Z,7.80
2019-03-21T20:19:58.118Z,8.00
2019-03-21T20:23:23.899Z,8.30
2019-03-21T20:30:10.365Z,8.30
2019-03-21T20:42:40.469Z,8.30
2019-03-21T20:45:41.629Z,8.30
2019-03-21T20:55:04.284Z,8.20
2019-03-21T20:58:10.694Z,8.30
2019-03-21T21:00:56.399Z,8.40
2019-03-21T21:17:08.368Z,8.50
2019-03-21T21:19:40.869Z,8.40
2019-03-21T21:22:20.419Z,8.40
2019-03-21T21:25:19.070Z,8.20
2019-03-21T21:28:40.739Z,8.00
2019-03-21T21:34:54.374Z,7.40
2019-03-21T21:37:29.458Z,7.30
2019-03-21T21:40:54.765Z,7.40
2019-03-21T21:44:00.139Z,7.60
2019-03-21T21:50:52.969Z,7.80
2019-03-21T21:53:26.596Z,7.90
2019-03-21T21:55:58.444Z,7.90
2019-03-21T21:59:35.882Z,7.90
2019-03-21T22:02:29.220Z,7.80
2019-03-21T22:15:11.217Z,6.00
2019-03-21T22:17:43.410Z,6.40
2019-03-21T22:20:34.134Z,6.60
2019-03-21T22:30:16.804Z,6.80
2019-03-21T22:32:48.705Z,6.70
2019-03-21T22:35:20.308Z,6.60
2019-03-21T22:38:46.739Z,6.60
2019-03-21T22:44:55.823Z,6.50
2019-03-21T22:51:22.639Z,6.70
2019-03-21T22:54:07.089Z,6.70
2019-03-21T22:56:41.621Z,6.80
2019-03-21T23:03:08.515Z,6.80
2019-03-21T23:06:11.118Z,6.80
2019-03-21T23:09:11.598Z,6.60
2019-03-21T23:12:27.738Z,6.50
2019-03-21T23:15:00.321Z,6.50
2019-03-21T23:17:32.269Z,6.60
2019-03-21T23:20:48.736Z,6.60
2019-03-21T23:23:36.568Z,6.60
2019-03-21T23:26:57.761Z,6.70
2019-03-21T23:32:57.372Z,6.80
2019-03-21T23:35:30.298Z,4.90
2019-03-21T23:41:39.444Z,5.10
2019-03-21T23:51:11.099Z,5.10
2019-03-21T23:54:09.228Z,5.30
